sensor_id;sensor_type;location;lat;lon;timestamp;P1;durP1;ratioP1;P2;durP2;ratioP2
25567;SDS011;13455;51.480;7.594;2023-09-12T00:01:42;3.85;;;2.30;;
25567;SDS011;13455;51.480;7.594;2023-09-12T00:04:08;4.10;;;2.28;;
25567;SDS011;13455;51.480;7.594;2023-09-12T00:06:36;4.05;;;2.30;;
25567;SDS011;13455;51.480;7.594;2023-09-12T00:09:02;3.80;;;2.13;;
25567;SDS011;13455;51.480;7.594;2023-09-12T00:11:30;5.03;;;2.30;;
25567;SDS011;13455;51.480;7.594;2023-09-12T00:13:56;4.97;;;2.30;;
25567;SDS011;13455;51.480;7.594;2023-09-12T00:16:22;5.25;;;2.33;;
25567;SDS011;13455;51.480;7.594;2023-09-12T00:18:48;3.75;;;2.28;;
25567;SDS011;13455;51.480;7.594;2023-09-12T00:21:14;5.30;;;2.60;;
25567;SDS011;13455;51.480;7.594;2023-09-12T00:23:40;5.97;;;2.30;;
25567;SDS011;13455;51.480;7.594;2023-09-12T00:26:06;4.32;;;2.50;;
25567;SDS011;13455;51.480;7.594;2023-09-12T00:28:32;5.73;;;2.40;;
25567;SDS011;13455;51.480;7.594;2023-09-12T00:30:59;4.22;;;2.50;;
25567;SDS011;13455;51.480;7.594;2023-09-12T00:33:25;6.53;;;2.58;;
25567;SDS011;13455;51.480;7.594;2023-09-12T00:35:51;4.13;;;2.60;;
25567;SDS011;13455;51.480;7.594;2023-09-12T00:38:16;4.50;;;2.50;;
25567;SDS011;13455;51.480;7.594;2023-09-12T00:40:42;6.40;;;3.10;;
25567;SDS011;13455;51.480;7.594;2023-09-12T00:43:07;5.40;;;2.80;;
25567;SDS011;13455;51.480;7.594;2023-09-12T00:45:33;4.63;;;2.58;;
25567;SDS011;13455;51.480;7.594;2023-09-12T00:47:59;4.75;;;2.72;;
25567;SDS011;13455;51.480;7.594;2023-09-12T00:50:26;3.88;;;2.67;;
25567;SDS011;13455;51.480;7.594;2023-09-12T00:52:52;4.32;;;2.35;;
25567;SDS011;13455;51.480;7.594;2023-09-12T00:55:19;3.63;;;2.30;;
25567;SDS011;13455;51.480;7.594;2023-09-12T00:57:44;3.33;;;2.40;;
25567;SDS011;13455;51.480;7.594;2023-09-12T01:00:11;3.92;;;2.53;;
25567;SDS011;13455;51.480;7.594;2023-09-12T01:02:39;3.78;;;2.75;;
25567;SDS011;13455;51.480;7.594;2023-09-12T01:05:07;4.55;;;2.80;;
25567;SDS011;13455;51.480;7.594;2023-09-12T01:07:34;5.90;;;2.80;;
25567;SDS011;13455;51.480;7.594;2023-09-12T01:10:04;5.03;;;2.75;;
25567;SDS011;13455;51.480;7.594;2023-09-12T01:12:31;6.55;;;2.88;;
25567;SDS011;13455;51.480;7.594;2023-09-12T01:14:57;4.15;;;3.20;;
25567;SDS011;13455;51.480;7.594;2023-09-12T01:17:23;4.95;;;3.13;;
25567;SDS011;13455;51.480;7.594;2023-09-12T01:19:49;7.00;;;3.05;;
25567;SDS011;13455;51.480;7.594;2023-09-12T01:22:26;5.07;;;3.20;;
25567;SDS011;13455;51.480;7.594;2023-09-12T01:25:25;5.50;;;3.40;;
25567;SDS011;13455;51.480;7.594;2023-09-12T01:28:05;6.43;;;3.40;;
25567;SDS011;13455;51.480;7.594;2023-09-12T01:30:34;6.30;;;3.53;;
25567;SDS011;13455;51.480;7.594;2023-09-12T01:33:01;5.03;;;3.38;;
25567;SDS011;13455;51.480;7.594;2023-09-12T01:35:27;4.82;;;3.22;;
25567;SDS011;13455;51.480;7.594;2023-09-12T01:37:53;5.47;;;3.40;;
25567;SDS011;13455;51.480;7.594;2023-09-12T01:40:25;6.53;;;3.80;;
25567;SDS011;13455;51.480;7.594;2023-09-12T01:42:58;6.70;;;3.50;;
25567;SDS011;13455;51.480;7.594;2023-09-12T01:45:25;6.97;;;4.13;;
25567;SDS011;13455;51.480;7.594;2023-09-12T01:47:52;7.38;;;4.13;;
25567;SDS011;13455;51.480;7.594;2023-09-12T01:50:18;7.72;;;4.55;;
25567;SDS011;13455;51.480;7.594;2023-09-12T01:52:45;7.85;;;4.97;;
25567;SDS011;13455;51.480;7.594;2023-09-12T01:55:12;8.27;;;5.30;;
25567;SDS011;13455;51.480;7.594;2023-09-12T01:57:39;9.45;;;6.82;;
25567;SDS011;13455;51.480;7.594;2023-09-12T02:00:06;9.32;;;7.35;;
25567;SDS011;13455;51.480;7.594;2023-09-12T02:02:32;13.48;;;8.32;;
25567;SDS011;13455;51.480;7.594;2023-09-12T02:05:05;11.60;;;8.47;;
25567;SDS011;13455;51.480;7.594;2023-09-12T02:07:33;12.52;;;9.30;;
25567;SDS011;13455;51.480;7.594;2023-09-12T02:10:00;11.35;;;9.05;;
25567;SDS011;13455;51.480;7.594;2023-09-12T02:12:26;11.18;;;8.70;;
25567;SDS011;13455;51.480;7.594;2023-09-12T02:14:52;12.83;;;8.80;;
25567;SDS011;13455;51.480;7.594;2023-09-12T02:17:17;12.40;;;9.00;;
25567;SDS011;13455;51.480;7.594;2023-09-12T02:19:43;11.63;;;8.60;;
25567;SDS011;13455;51.480;7.594;2023-09-12T02:22:12;11.10;;;8.38;;
25567;SDS011;13455;51.480;7.594;2023-09-12T02:24:38;11.40;;;8.80;;
25567;SDS011;13455;51.480;7.594;2023-09-12T02:27:04;12.53;;;8.90;;
25567;SDS011;13455;51.480;7.594;2023-09-12T02:29:29;12.27;;;9.25;;
25567;SDS011;13455;51.480;7.594;2023-09-12T02:31:57;12.43;;;8.57;;
25567;SDS011;13455;51.480;7.594;2023-09-12T02:34:23;10.50;;;9.07;;
25567;SDS011;13455;51.480;7.594;2023-09-12T02:36:48;12.20;;;8.85;;
25567;SDS011;13455;51.480;7.594;2023-09-12T02:39:14;13.40;;;9.03;;
25567;SDS011;13455;51.480;7.594;2023-09-12T02:41:40;12.07;;;8.60;;
25567;SDS011;13455;51.480;7.594;2023-09-12T02:44:06;12.80;;;9.07;;
25567;SDS011;13455;51.480;7.594;2023-09-12T02:46:32;11.77;;;8.90;;
25567;SDS011;13455;51.480;7.594;2023-09-12T02:48:58;11.52;;;9.00;;
25567;SDS011;13455;51.480;7.594;2023-09-12T02:51:25;13.65;;;9.90;;
25567;SDS011;13455;51.480;7.594;2023-09-12T02:53:51;14.40;;;9.90;;
25567;SDS011;13455;51.480;7.594;2023-09-12T02:56:17;13.10;;;10.30;;
25567;SDS011;13455;51.480;7.594;2023-09-12T02:58:45;13.93;;;10.82;;
25567;SDS011;13455;51.480;7.594;2023-09-12T03:01:18;16.65;;;11.40;;
25567;SDS011;13455;51.480;7.594;2023-09-12T03:03:50;16.77;;;11.10;;
25567;SDS011;13455;51.480;7.594;2023-09-12T03:06:16;13.57;;;10.32;;
25567;SDS011;13455;51.480;7.594;2023-09-12T03:08:44;12.73;;;10.30;;
25567;SDS011;13455;51.480;7.594;2023-09-12T03:11:10;13.23;;;10.02;;
25567;SDS011;13455;51.480;7.594;2023-09-12T03:13:36;12.63;;;9.93;;
25567;SDS011;13455;51.480;7.594;2023-09-12T03:19:24;12.87;;;8.93;;
25567;SDS011;13455;51.480;7.594;2023-09-12T03:21:50;13.87;;;9.47;;
25567;SDS011;13455;51.480;7.594;2023-09-12T03:27:37;11.57;;;9.20;;
25567;SDS011;13455;51.480;7.594;2023-09-12T03:30:04;14.40;;;9.40;;
25567;SDS011;13455;51.480;7.594;2023-09-12T03:32:30;12.75;;;9.80;;
25567;SDS011;13455;51.480;7.594;2023-09-12T03:34:56;12.57;;;10.13;;
25567;SDS011;13455;51.480;7.594;2023-09-12T03:37:22;12.48;;;9.90;;
25567;SDS011;13455;51.480;7.594;2023-09-12T03:39:47;16.42;;;10.50;;
25567;SDS011;13455;51.480;7.594;2023-09-12T03:42:13;14.07;;;9.57;;
25567;SDS011;13455;51.480;7.594;2023-09-12T03:44:39;14.73;;;9.93;;
25567;SDS011;13455;51.480;7.594;2023-09-12T03:47:04;16.05;;;10.20;;
25567;SDS011;13455;51.480;7.594;2023-09-12T03:49:31;16.53;;;11.07;;
25567;SDS011;13455;51.480;7.594;2023-09-12T03:51:57;17.20;;;12.10;;
25567;SDS011;13455;51.480;7.594;2023-09-12T03:54:23;17.63;;;12.27;;
25567;SDS011;13455;51.480;7.594;2023-09-12T03:56:49;17.80;;;12.00;;
25567;SDS011;13455;51.480;7.594;2023-09-12T03:59:15;18.10;;;13.53;;
25567;SDS011;13455;51.480;7.594;2023-09-12T04:01:41;22.48;;;13.48;;
25567;SDS011;13455;51.480;7.594;2023-09-12T04:04:07;18.17;;;13.50;;
25567;SDS011;13455;51.480;7.594;2023-09-12T04:06:33;19.63;;;13.60;;
25567;SDS011;13455;51.480;7.594;2023-09-12T04:08:59;30.70;;;16.10;;
25567;SDS011;13455;51.480;7.594;2023-09-12T04:11:25;22.03;;;14.50;;
25567;SDS011;13455;51.480;7.594;2023-09-12T04:13:51;20.33;;;15.03;;
25567;SDS011;13455;51.480;7.594;2023-09-12T04:16:17;20.23;;;15.50;;
25567;SDS011;13455;51.480;7.594;2023-09-12T04:18:44;23.90;;;16.50;;
25567;SDS011;13455;51.480;7.594;2023-09-12T04:21:10;25.30;;;16.02;;
25567;SDS011;13455;51.480;7.594;2023-09-12T04:23:36;22.70;;;14.73;;
25567;SDS011;13455;51.480;7.594;2023-09-12T04:26:01;19.05;;;14.43;;
25567;SDS011;13455;51.480;7.594;2023-09-12T04:28:28;19.08;;;13.57;;
25567;SDS011;13455;51.480;7.594;2023-09-12T04:31:00;19.58;;;12.85;;
25567;SDS011;13455;51.480;7.594;2023-09-12T04:33:27;19.95;;;13.73;;
25567;SDS011;13455;51.480;7.594;2023-09-12T04:35:52;20.77;;;15.55;;
25567;SDS011;13455;51.480;7.594;2023-09-12T04:38:18;22.13;;;17.67;;
25567;SDS011;13455;51.480;7.594;2023-09-12T04:40:52;24.25;;;18.52;;
25567;SDS011;13455;51.480;7.594;2023-09-12T04:43:19;25.73;;;19.40;;
25567;SDS011;13455;51.480;7.594;2023-09-12T04:45:44;26.13;;;19.65;;
25567;SDS011;13455;51.480;7.594;2023-09-12T04:48:10;25.25;;;18.90;;
25567;SDS011;13455;51.480;7.594;2023-09-12T04:50:42;27.13;;;19.10;;
25567;SDS011;13455;51.480;7.594;2023-09-12T04:53:08;26.70;;;19.65;;
25567;SDS011;13455;51.480;7.594;2023-09-12T04:55:35;24.58;;;18.80;;
25567;SDS011;13455;51.480;7.594;2023-09-12T04:58:01;25.63;;;19.30;;
25567;SDS011;13455;51.480;7.594;2023-09-12T05:00:27;26.90;;;19.38;;
25567;SDS011;13455;51.480;7.594;2023-09-12T05:02:53;25.98;;;19.38;;
25567;SDS011;13455;51.480;7.594;2023-09-12T05:05:19;26.13;;;18.98;;
25567;SDS011;13455;51.480;7.594;2023-09-12T05:07:45;26.00;;;18.90;;
25567;SDS011;13455;51.480;7.594;2023-09-12T05:10:11;25.63;;;19.10;;
25567;SDS011;13455;51.480;7.594;2023-09-12T05:12:37;28.55;;;19.30;;
25567;SDS011;13455;51.480;7.594;2023-09-12T05:15:03;24.00;;;18.15;;
25567;SDS011;13455;51.480;7.594;2023-09-12T05:17:29;22.85;;;18.13;;
25567;SDS011;13455;51.480;7.594;2023-09-12T05:19:55;21.73;;;16.77;;
25567;SDS011;13455;51.480;7.594;2023-09-12T05:22:21;22.30;;;16.42;;
25567;SDS011;13455;51.480;7.594;2023-09-12T05:24:47;20.60;;;15.63;;
25567;SDS011;13455;51.480;7.594;2023-09-12T05:27:14;21.48;;;15.23;;
25567;SDS011;13455;51.480;7.594;2023-09-12T05:29:40;18.92;;;14.30;;
25567;SDS011;13455;51.480;7.594;2023-09-12T05:32:06;19.10;;;13.00;;
25567;SDS011;13455;51.480;7.594;2023-09-12T05:34:32;18.00;;;12.70;;
25567;SDS011;13455;51.480;7.594;2023-09-12T05:36:58;16.40;;;12.85;;
25567;SDS011;13455;51.480;7.594;2023-09-12T05:39:24;16.80;;;12.40;;
25567;SDS011;13455;51.480;7.594;2023-09-12T05:41:50;16.08;;;12.70;;
25567;SDS011;13455;51.480;7.594;2023-09-12T05:44:16;14.38;;;11.63;;
25567;SDS011;13455;51.480;7.594;2023-09-12T05:46:46;16.52;;;12.20;;
25567;SDS011;13455;51.480;7.594;2023-09-12T05:49:13;13.45;;;11.18;;
25567;SDS011;13455;51.480;7.594;2023-09-12T05:51:39;17.08;;;11.60;;
25567;SDS011;13455;51.480;7.594;2023-09-12T05:54:05;16.10;;;12.00;;
25567;SDS011;13455;51.480;7.594;2023-09-12T05:56:31;14.27;;;11.30;;
25567;SDS011;13455;51.480;7.594;2023-09-12T05:58:57;16.70;;;11.13;;
25567;SDS011;13455;51.480;7.594;2023-09-12T06:01:23;14.00;;;11.63;;
25567;SDS011;13455;51.480;7.594;2023-09-12T06:03:49;16.02;;;11.77;;
25567;SDS011;13455;51.480;7.594;2023-09-12T06:06:16;15.88;;;12.05;;
25567;SDS011;13455;51.480;7.594;2023-09-12T06:08:42;16.70;;;12.38;;
25567;SDS011;13455;51.480;7.594;2023-09-12T06:11:08;16.65;;;12.23;;
25567;SDS011;13455;51.480;7.594;2023-09-12T06:13:34;14.60;;;12.10;;
25567;SDS011;13455;51.480;7.594;2023-09-12T06:16:02;20.35;;;12.18;;
25567;SDS011;13455;51.480;7.594;2023-09-12T06:18:28;16.85;;;12.98;;
25567;SDS011;13455;51.480;7.594;2023-09-12T06:20:56;16.70;;;11.80;;
25567;SDS011;13455;51.480;7.594;2023-09-12T06:23:22;16.25;;;12.27;;
25567;SDS011;13455;51.480;7.594;2023-09-12T06:25:48;15.30;;;11.97;;
25567;SDS011;13455;51.480;7.594;2023-09-12T06:28:24;15.97;;;12.40;;
25567;SDS011;13455;51.480;7.594;2023-09-12T06:30:49;16.33;;;12.40;;
25567;SDS011;13455;51.480;7.594;2023-09-12T06:33:15;15.85;;;12.25;;
25567;SDS011;13455;51.480;7.594;2023-09-12T06:35:41;16.13;;;12.20;;
25567;SDS011;13455;51.480;7.594;2023-09-12T06:38:07;15.63;;;12.20;;
25567;SDS011;13455;51.480;7.594;2023-09-12T06:40:33;14.57;;;11.25;;
25567;SDS011;13455;51.480;7.594;2023-09-12T06:42:59;15.27;;;11.02;;
25567;SDS011;13455;51.480;7.594;2023-09-12T06:45:25;13.98;;;11.18;;
25567;SDS011;13455;51.480;7.594;2023-09-12T06:47:51;13.13;;;11.13;;
25567;SDS011;13455;51.480;7.594;2023-09-12T06:50:17;15.00;;;11.73;;
25567;SDS011;13455;51.480;7.594;2023-09-12T06:52:43;16.90;;;11.30;;
25567;SDS011;13455;51.480;7.594;2023-09-12T06:55:09;16.33;;;11.90;;
25567;SDS011;13455;51.480;7.594;2023-09-12T06:57:35;15.43;;;11.60;;
25567;SDS011;13455;51.480;7.594;2023-09-12T07:00:01;21.00;;;12.53;;
25567;SDS011;13455;51.480;7.594;2023-09-12T07:02:31;29.33;;;15.20;;
25567;SDS011;13455;51.480;7.594;2023-09-12T07:04:57;27.67;;;14.43;;
25567;SDS011;13455;51.480;7.594;2023-09-12T07:07:24;29.77;;;14.15;;
25567;SDS011;13455;51.480;7.594;2023-09-12T07:09:49;57.78;;;15.63;;
25567;SDS011;13455;51.480;7.594;2023-09-12T07:12:15;21.08;;;13.68;;
25567;SDS011;13455;51.480;7.594;2023-09-12T07:14:41;22.98;;;14.10;;
25567;SDS011;13455;51.480;7.594;2023-09-12T07:17:07;21.67;;;12.68;;
25567;SDS011;13455;51.480;7.594;2023-09-12T07:19:33;55.90;;;16.23;;
25567;SDS011;13455;51.480;7.594;2023-09-12T07:22:00;45.55;;;15.50;;
25567;SDS011;13455;51.480;7.594;2023-09-12T07:24:26;31.35;;;15.38;;
25567;SDS011;13455;51.480;7.594;2023-09-12T07:26:52;19.40;;;12.98;;
25567;SDS011;13455;51.480;7.594;2023-09-12T07:29:18;26.48;;;15.85;;
25567;SDS011;13455;51.480;7.594;2023-09-12T07:31:45;26.70;;;17.73;;
25567;SDS011;13455;51.480;7.594;2023-09-12T07:34:11;23.20;;;17.55;;
25567;SDS011;13455;51.480;7.594;2023-09-12T07:36:39;25.50;;;19.10;;
25567;SDS011;13455;51.480;7.594;2023-09-12T07:39:05;24.75;;;19.77;;
25567;SDS011;13455;51.480;7.594;2023-09-12T07:41:31;26.08;;;20.13;;
25567;SDS011;13455;51.480;7.594;2023-09-12T07:43:57;28.92;;;20.80;;
25567;SDS011;13455;51.480;7.594;2023-09-12T07:46:23;27.15;;;20.88;;
25567;SDS011;13455;51.480;7.594;2023-09-12T07:48:48;26.73;;;20.83;;
25567;SDS011;13455;51.480;7.594;2023-09-12T07:51:15;25.65;;;18.33;;
25567;SDS011;13455;51.480;7.594;2023-09-12T07:53:42;22.48;;;17.80;;
25567;SDS011;13455;51.480;7.594;2023-09-12T07:56:09;19.88;;;16.38;;
25567;SDS011;13455;51.480;7.594;2023-09-12T07:58:36;24.20;;;16.83;;
25567;SDS011;13455;51.480;7.594;2023-09-12T08:01:05;20.33;;;16.35;;
25567;SDS011;13455;51.480;7.594;2023-09-12T08:03:32;19.75;;;16.70;;
25567;SDS011;13455;51.480;7.594;2023-09-12T08:05:58;18.95;;;15.10;;
25567;SDS011;13455;51.480;7.594;2023-09-12T08:08:24;19.88;;;15.43;;
25567;SDS011;13455;51.480;7.594;2023-09-12T08:10:50;22.00;;;16.10;;
25567;SDS011;13455;51.480;7.594;2023-09-12T08:13:16;20.77;;;16.55;;
25567;SDS011;13455;51.480;7.594;2023-09-12T08:15:42;20.27;;;16.10;;
25567;SDS011;13455;51.480;7.594;2023-09-12T08:18:07;21.60;;;17.13;;
25567;SDS011;13455;51.480;7.594;2023-09-12T08:20:33;22.40;;;17.05;;
25567;SDS011;13455;51.480;7.594;2023-09-12T08:22:58;21.50;;;17.80;;
25567;SDS011;13455;51.480;7.594;2023-09-12T08:25:24;21.83;;;17.40;;
25567;SDS011;13455;51.480;7.594;2023-09-12T08:27:50;21.42;;;17.55;;
25567;SDS011;13455;51.480;7.594;2023-09-12T08:30:16;21.27;;;16.65;;
25567;SDS011;13455;51.480;7.594;2023-09-12T08:32:42;18.48;;;15.32;;
25567;SDS011;13455;51.480;7.594;2023-09-12T08:35:10;20.35;;;15.90;;
25567;SDS011;13455;51.480;7.594;2023-09-12T08:37:37;20.48;;;15.63;;
25567;SDS011;13455;51.480;7.594;2023-09-12T08:40:04;18.80;;;14.40;;
25567;SDS011;13455;51.480;7.594;2023-09-12T08:42:33;18.07;;;13.13;;
25567;SDS011;13455;51.480;7.594;2023-09-12T08:45:05;16.95;;;12.88;;
25567;SDS011;13455;51.480;7.594;2023-09-12T08:47:42;16.25;;;12.57;;
25567;SDS011;13455;51.480;7.594;2023-09-12T08:50:10;15.53;;;13.17;;
25567;SDS011;13455;51.480;7.594;2023-09-12T08:52:38;17.48;;;13.20;;
25567;SDS011;13455;51.480;7.594;2023-09-12T08:55:07;18.67;;;13.30;;
25567;SDS011;13455;51.480;7.594;2023-09-12T08:57:33;18.33;;;13.30;;
25567;SDS011;13455;51.480;7.594;2023-09-12T09:00:01;17.20;;;13.70;;
25567;SDS011;13455;51.480;7.594;2023-09-12T09:02:32;17.63;;;13.70;;
25567;SDS011;13455;51.480;7.594;2023-09-12T09:04:58;15.57;;;13.33;;
25567;SDS011;13455;51.480;7.594;2023-09-12T09:07:27;18.97;;;13.53;;
25567;SDS011;13455;51.480;7.594;2023-09-12T09:09:54;17.92;;;13.20;;
25567;SDS011;13455;51.480;7.594;2023-09-12T09:12:21;15.50;;;12.98;;
25567;SDS011;13455;51.480;7.594;2023-09-12T09:14:46;15.85;;;12.60;;
25567;SDS011;13455;51.480;7.594;2023-09-12T09:17:12;18.23;;;12.27;;
25567;SDS011;13455;51.480;7.594;2023-09-12T09:19:42;14.77;;;11.95;;
25567;SDS011;13455;51.480;7.594;2023-09-12T09:22:09;12.20;;;10.07;;
25567;SDS011;13455;51.480;7.594;2023-09-12T09:24:38;13.25;;;10.45;;
25567;SDS011;13455;51.480;7.594;2023-09-12T09:27:04;14.38;;;9.48;;
25567;SDS011;13455;51.480;7.594;2023-09-12T09:29:29;12.55;;;9.50;;
25567;SDS011;13455;51.480;7.594;2023-09-12T09:31:57;11.32;;;9.52;;
25567;SDS011;13455;51.480;7.594;2023-09-12T09:34:25;12.20;;;9.23;;
25567;SDS011;13455;51.480;7.594;2023-09-12T09:36:54;11.32;;;9.63;;
25567;SDS011;13455;51.480;7.594;2023-09-12T09:39:25;11.48;;;9.07;;
25567;SDS011;13455;51.480;7.594;2023-09-12T09:41:52;12.40;;;9.27;;
25567;SDS011;13455;51.480;7.594;2023-09-12T09:44:21;9.05;;;7.28;;
25567;SDS011;13455;51.480;7.594;2023-09-12T09:46:53;9.05;;;7.18;;
25567;SDS011;13455;51.480;7.594;2023-09-12T09:49:20;9.23;;;6.57;;
25567;SDS011;13455;51.480;7.594;2023-09-12T09:51:46;7.97;;;5.93;;
25567;SDS011;13455;51.480;7.594;2023-09-12T09:54:13;6.57;;;5.18;;
25567;SDS011;13455;51.480;7.594;2023-09-12T09:56:46;7.70;;;6.00;;
25567;SDS011;13455;51.480;7.594;2023-09-12T09:59:16;6.72;;;5.60;;
25567;SDS011;13455;51.480;7.594;2023-09-12T10:01:43;8.10;;;5.20;;
25567;SDS011;13455;51.480;7.594;2023-09-12T10:04:09;7.23;;;5.30;;
25567;SDS011;13455;51.480;7.594;2023-09-12T10:06:36;6.53;;;5.10;;
25567;SDS011;13455;51.480;7.594;2023-09-12T10:09:05;6.88;;;4.95;;
25567;SDS011;13455;51.480;7.594;2023-09-12T10:11:34;6.80;;;4.87;;
25567;SDS011;13455;51.480;7.594;2023-09-12T10:14:02;7.53;;;5.18;;
25567;SDS011;13455;51.480;7.594;2023-09-12T10:16:45;7.17;;;5.50;;
25567;SDS011;13455;51.480;7.594;2023-09-12T10:19:17;7.45;;;6.05;;
25567;SDS011;13455;51.480;7.594;2023-09-12T10:22:06;8.02;;;6.20;;
25567;SDS011;13455;51.480;7.594;2023-09-12T10:24:37;9.60;;;6.20;;
25567;SDS011;13455;51.480;7.594;2023-09-12T10:27:05;8.23;;;6.03;;
25567;SDS011;13455;51.480;7.594;2023-09-12T10:29:31;7.07;;;5.47;;
25567;SDS011;13455;51.480;7.594;2023-09-12T10:31:57;6.77;;;5.17;;
25567;SDS011;13455;51.480;7.594;2023-09-12T10:34:24;8.05;;;5.57;;
25567;SDS011;13455;51.480;7.594;2023-09-12T10:36:50;6.77;;;5.33;;
25567;SDS011;13455;51.480;7.594;2023-09-12T10:39:18;6.27;;;4.70;;
25567;SDS011;13455;51.480;7.594;2023-09-12T10:41:45;6.20;;;4.60;;
25567;SDS011;13455;51.480;7.594;2023-09-12T10:44:16;4.00;;;3.20;;
25567;SDS011;13455;51.480;7.594;2023-09-12T10:46:43;5.22;;;2.83;;
25567;SDS011;13455;51.480;7.594;2023-09-12T10:49:11;3.17;;;2.50;;
25567;SDS011;13455;51.480;7.594;2023-09-12T10:51:43;4.07;;;2.83;;
25567;SDS011;13455;51.480;7.594;2023-09-12T10:54:14;3.45;;;2.10;;
25567;SDS011;13455;51.480;7.594;2023-09-12T10:57:06;3.13;;;1.90;;
25567;SDS011;13455;51.480;7.594;2023-09-12T10:59:33;2.38;;;1.73;;
25567;SDS011;13455;51.480;7.594;2023-09-12T11:04:55;3.28;;;2.55;;
25567;SDS011;13455;51.480;7.594;2023-09-12T11:12:40;4.88;;;3.00;;
25567;SDS011;13455;51.480;7.594;2023-09-12T11:15:10;3.72;;;2.78;;
25567;SDS011;13455;51.480;7.594;2023-09-12T11:17:39;4.70;;;3.15;;
25567;SDS011;13455;51.480;7.594;2023-09-12T11:20:06;3.70;;;2.90;;
25567;SDS011;13455;51.480;7.594;2023-09-12T11:22:36;4.82;;;2.67;;
25567;SDS011;13455;51.480;7.594;2023-09-12T11:25:04;5.57;;;3.00;;
25567;SDS011;13455;51.480;7.594;2023-09-12T11:28:15;3.47;;;2.90;;
25567;SDS011;13455;51.480;7.594;2023-09-12T11:30:23;6.53;;;2.80;;
25567;SDS011;13455;51.480;7.594;2023-09-12T11:33:00;4.05;;;2.80;;
25567;SDS011;13455;51.480;7.594;2023-09-12T11:35:29;3.47;;;2.20;;
25567;SDS011;13455;51.480;7.594;2023-09-12T11:37:55;4.00;;;2.25;;
25567;SDS011;13455;51.480;7.594;2023-09-12T11:40:23;4.90;;;2.50;;
25567;SDS011;13455;51.480;7.594;2023-09-12T11:42:49;3.83;;;2.55;;
25567;SDS011;13455;51.480;7.594;2023-09-12T11:45:17;3.65;;;2.20;;
25567;SDS011;13455;51.480;7.594;2023-09-12T11:47:44;4.20;;;2.30;;
25567;SDS011;13455;51.480;7.594;2023-09-12T11:50:29;4.47;;;2.40;;
25567;SDS011;13455;51.480;7.594;2023-09-12T11:53:02;3.35;;;2.45;;
25567;SDS011;13455;51.480;7.594;2023-09-12T11:55:30;3.72;;;2.40;;
25567;SDS011;13455;51.480;7.594;2023-09-12T11:58:00;3.58;;;2.30;;
25567;SDS011;13455;51.480;7.594;2023-09-12T12:00:26;3.13;;;2.10;;
25567;SDS011;13455;51.480;7.594;2023-09-12T12:02:55;3.10;;;2.00;;
25567;SDS011;13455;51.480;7.594;2023-09-12T12:05:22;3.13;;;1.90;;
25567;SDS011;13455;51.480;7.594;2023-09-12T12:07:48;3.78;;;2.25;;
25567;SDS011;13455;51.480;7.594;2023-09-12T12:10:15;3.00;;;1.98;;
25567;SDS011;13455;51.480;7.594;2023-09-12T12:12:43;2.70;;;2.00;;
25567;SDS011;13455;51.480;7.594;2023-09-12T12:15:10;4.20;;;2.00;;
25567;SDS011;13455;51.480;7.594;2023-09-12T12:17:37;3.45;;;2.10;;
25567;SDS011;13455;51.480;7.594;2023-09-12T12:20:06;3.43;;;1.70;;
25567;SDS011;13455;51.480;7.594;2023-09-12T12:22:33;3.22;;;1.73;;
25567;SDS011;13455;51.480;7.594;2023-09-12T12:25:05;2.80;;;2.10;;
25567;SDS011;13455;51.480;7.594;2023-09-12T12:27:35;4.13;;;2.10;;
25567;SDS011;13455;51.480;7.594;2023-09-12T12:30:01;2.50;;;2.00;;
25567;SDS011;13455;51.480;7.594;2023-09-12T12:32:28;3.90;;;1.80;;
25567;SDS011;13455;51.480;7.594;2023-09-12T12:34:54;2.40;;;2.00;;
25567;SDS011;13455;51.480;7.594;2023-09-12T12:37:20;3.05;;;1.98;;
25567;SDS011;13455;51.480;7.594;2023-09-12T12:39:46;3.10;;;1.88;;
25567;SDS011;13455;51.480;7.594;2023-09-12T12:42:12;2.50;;;1.90;;
25567;SDS011;13455;51.480;7.594;2023-09-12T12:44:38;3.28;;;1.60;;
25567;SDS011;13455;51.480;7.594;2023-09-12T12:47:06;3.20;;;1.80;;
25567;SDS011;13455;51.480;7.594;2023-09-12T12:49:36;3.87;;;1.90;;
25567;SDS011;13455;51.480;7.594;2023-09-12T12:52:05;3.88;;;2.00;;
25567;SDS011;13455;51.480;7.594;2023-09-12T12:54:35;3.30;;;2.00;;
25567;SDS011;13455;51.480;7.594;2023-09-12T12:57:01;4.00;;;2.10;;
25567;SDS011;13455;51.480;7.594;2023-09-12T12:59:27;2.83;;;1.83;;
25567;SDS011;13455;51.480;7.594;2023-09-12T13:01:55;3.10;;;1.67;;
25567;SDS011;13455;51.480;7.594;2023-09-12T13:04:20;2.75;;;1.55;;
25567;SDS011;13455;51.480;7.594;2023-09-12T13:06:46;3.40;;;1.70;;
25567;SDS011;13455;51.480;7.594;2023-09-12T13:09:11;5.17;;;1.90;;
25567;SDS011;13455;51.480;7.594;2023-09-12T13:11:37;3.10;;;1.83;;
25567;SDS011;13455;51.480;7.594;2023-09-12T13:14:03;2.75;;;1.88;;
25567;SDS011;13455;51.480;7.594;2023-09-12T13:16:36;3.05;;;1.80;;
25567;SDS011;13455;51.480;7.594;2023-09-12T13:19:02;2.90;;;1.90;;
25567;SDS011;13455;51.480;7.594;2023-09-12T13:21:28;3.90;;;1.80;;
25567;SDS011;13455;51.480;7.594;2023-09-12T13:23:54;4.03;;;1.80;;
25567;SDS011;13455;51.480;7.594;2023-09-12T13:26:19;3.20;;;1.90;;
25567;SDS011;13455;51.480;7.594;2023-09-12T13:28:45;2.92;;;2.00;;
25567;SDS011;13455;51.480;7.594;2023-09-12T13:31:11;2.93;;;1.90;;
25567;SDS011;13455;51.480;7.594;2023-09-12T13:33:37;2.75;;;1.90;;
25567;SDS011;13455;51.480;7.594;2023-09-12T13:36:03;3.10;;;1.90;;
25567;SDS011;13455;51.480;7.594;2023-09-12T13:38:28;3.33;;;2.10;;
25567;SDS011;13455;51.480;7.594;2023-09-12T13:40:54;2.80;;;2.00;;
25567;SDS011;13455;51.480;7.594;2023-09-12T13:43:20;3.83;;;2.57;;
25567;SDS011;13455;51.480;7.594;2023-09-12T13:45:45;4.73;;;2.50;;
25567;SDS011;13455;51.480;7.594;2023-09-12T13:48:11;3.50;;;2.30;;
25567;SDS011;13455;51.480;7.594;2023-09-12T13:50:38;3.20;;;1.60;;
25567;SDS011;13455;51.480;7.594;2023-09-12T13:53:04;4.05;;;1.73;;
25567;SDS011;13455;51.480;7.594;2023-09-12T13:55:31;3.85;;;1.90;;
25567;SDS011;13455;51.480;7.594;2023-09-12T13:57:58;3.65;;;1.90;;
25567;SDS011;13455;51.480;7.594;2023-09-12T14:00:24;3.83;;;1.80;;
25567;SDS011;13455;51.480;7.594;2023-09-12T14:02:50;3.47;;;1.73;;
25567;SDS011;13455;51.480;7.594;2023-09-12T14:05:16;2.38;;;1.70;;
25567;SDS011;13455;51.480;7.594;2023-09-12T14:07:42;2.38;;;1.70;;
25567;SDS011;13455;51.480;7.594;2023-09-12T14:10:09;2.88;;;1.70;;
25567;SDS011;13455;51.480;7.594;2023-09-12T14:12:34;3.25;;;1.70;;
25567;SDS011;13455;51.480;7.594;2023-09-12T14:15:03;2.58;;;1.77;;
25567;SDS011;13455;51.480;7.594;2023-09-12T14:17:30;3.42;;;1.80;;
25567;SDS011;13455;51.480;7.594;2023-09-12T14:19:56;3.57;;;1.70;;
25567;SDS011;13455;51.480;7.594;2023-09-12T14:22:22;2.83;;;2.00;;
25567;SDS011;13455;51.480;7.594;2023-09-12T14:24:47;2.97;;;1.90;;
25567;SDS011;13455;51.480;7.594;2023-09-12T14:27:13;3.47;;;1.90;;
25567;SDS011;13455;51.480;7.594;2023-09-12T14:29:39;2.85;;;1.80;;
25567;SDS011;13455;51.480;7.594;2023-09-12T14:32:04;3.30;;;1.90;;
25567;SDS011;13455;51.480;7.594;2023-09-12T14:34:30;4.90;;;1.90;;
25567;SDS011;13455;51.480;7.594;2023-09-12T14:36:58;4.22;;;1.90;;
25567;SDS011;13455;51.480;7.594;2023-09-12T14:39:24;2.92;;;1.95;;
25567;SDS011;13455;51.480;7.594;2023-09-12T14:41:50;3.60;;;2.30;;
25567;SDS011;13455;51.480;7.594;2023-09-12T14:44:19;4.38;;;2.20;;
25567;SDS011;13455;51.480;7.594;2023-09-12T14:46:46;4.55;;;2.22;;
25567;SDS011;13455;51.480;7.594;2023-09-12T14:49:11;3.70;;;2.30;;
25567;SDS011;13455;51.480;7.594;2023-09-12T14:51:37;4.77;;;2.40;;